sensor_id;sensor_type;location;lat;lon;timestamp;temperature;humidity
65404;DHT22;52014;52.088;5.096;2023-03-23T00:01:03;12.30;99.90
65404;DHT22;52014;52.088;5.096;2023-03-23T00:03:29;12.30;99.90
65404;DHT22;52014;52.088;5.096;2023-03-23T00:06:00;12.30;99.90
65404;DHT22;52014;52.088;5.096;2023-03-23T00:08:30;12.30;99.90
65404;DHT22;52014;52.088;5.096;2023-03-23T00:10:56;12.30;99.90
65404;DHT22;52014;52.088;5.096;2023-03-23T00:13:25;12.30;99.90
65404;DHT22;52014;52.088;5.096;2023-03-23T00:15:51;12.30;99.90
65404;DHT22;52014;52.088;5.096;2023-03-23T00:18:19;12.30;99.90
65404;DHT22;52014;52.088;5.096;2023-03-23T00:20:49;12.30;99.90
65404;DHT22;52014;52.088;5.096;2023-03-23T00:23:18;12.30;99.90
65404;DHT22;52014;52.088;5.096;2023-03-23T00:25:47;12.30;99.90
65404;DHT22;52014;52.088;5.096;2023-03-23T00:28:13;12.30;99.90
65404;DHT22;52014;52.088;5.096;2023-03-23T00:30:39;12.30;99.90
65404;DHT22;52014;52.088;5.096;2023-03-23T00:33:07;12.30;99.90
65404;DHT22;52014;52.088;5.096;2023-03-23T00:35:33;12.30;99.90
65404;DHT22;52014;52.088;5.096;2023-03-23T00:37:59;12.30;99.90
65404;DHT22;52014;52.088;5.096;2023-03-23T00:40:25;12.30;99.90
65404;DHT22;52014;52.088;5.096;2023-03-23T00:42:51;12.30;99.90
65404;DHT22;52014;52.088;5.096;2023-03-23T00:45:17;12.30;99.90
65404;DHT22;52014;52.088;5.096;2023-03-23T00:47:42;12.30;99.90
65404;DHT22;52014;52.088;5.096;2023-03-23T00:50:12;12.20;99.90
65404;DHT22;52014;52.088;5.096;2023-03-23T00:52:39;12.30;99.90
65404;DHT22;52014;52.088;5.096;2023-03-23T00:55:05;12.30;99.90
65404;DHT22;52014;52.088;5.096;2023-03-23T00:57:31;12.30;99.90
65404;DHT22;52014;52.088;5.096;2023-03-23T00:59:56;12.30;99.90
65404;DHT22;52014;52.088;5.096;2023-03-23T01:02:22;12.30;99.90
65404;DHT22;52014;52.088;5.096;2023-03-23T01:04:50;12.30;99.90
65404;DHT22;52014;52.088;5.096;2023-03-23T01:07:20;12.30;99.90
65404;DHT22;52014;52.088;5.096;2023-03-23T01:09:48;12.30;99.90
65404;DHT22;52014;52.088;5.096;2023-03-23T01:12:14;12.30;99.90
65404;DHT22;52014;52.088;5.096;2023-03-23T01:14:40;12.30;99.90
65404;DHT22;52014;52.088;5.096;2023-03-23T01:17:05;12.30;99.90
65404;DHT22;52014;52.088;5.096;2023-03-23T01:19:31;12.30;99.90
65404;DHT22;52014;52.088;5.096;2023-03-23T01:21:57;12.30;99.90
65404;DHT22;52014;52.088;5.096;2023-03-23T01:24:22;12.30;99.90
65404;DHT22;52014;52.088;5.096;2023-03-23T01:26:48;12.30;99.90
65404;DHT22;52014;52.088;5.096;2023-03-23T01:29:13;12.20;99.90
65404;DHT22;52014;52.088;5.096;2023-03-23T01:31:58;12.30;99.90
65404;DHT22;52014;52.088;5.096;2023-03-23T01:34:24;12.20;99.90
65404;DHT22;52014;52.088;5.096;2023-03-23T01:36:50;12.20;99.90
65404;DHT22;52014;52.088;5.096;2023-03-23T01:39:15;12.20;99.90
65404;DHT22;52014;52.088;5.096;2023-03-23T01:41:41;12.20;99.90
65404;DHT22;52014;52.088;5.096;2023-03-23T01:46:52;12.20;99.90
65404;DHT22;52014;52.088;5.096;2023-03-23T01:49:21;12.20;99.90
65404;DHT22;52014;52.088;5.096;2023-03-23T01:51:55;12.20;99.90
65404;DHT22;52014;52.088;5.096;2023-03-23T01:54:22;12.20;99.90
65404;DHT22;52014;52.088;5.096;2023-03-23T01:56:53;12.30;99.90
65404;DHT22;52014;52.088;5.096;2023-03-23T01:59:20;12.30;99.90
65404;DHT22;52014;52.088;5.096;2023-03-23T02:01:47;12.30;99.90
65404;DHT22;52014;52.088;5.096;2023-03-23T02:04:13;12.30;99.90
65404;DHT22;52014;52.088;5.096;2023-03-23T02:06:40;12.30;99.90
65404;DHT22;52014;52.088;5.096;2023-03-23T02:09:05;12.30;99.90
65404;DHT22;52014;52.088;5.096;2023-03-23T02:11:31;12.30;99.90
65404;DHT22;52014;52.088;5.096;2023-03-23T02:13:57;12.20;99.90
65404;DHT22;52014;52.088;5.096;2023-03-23T02:26:27;12.20;99.90
65404;DHT22;52014;52.088;5.096;2023-03-23T02:29:11;12.20;99.90
65404;DHT22;52014;52.088;5.096;2023-03-23T02:34:05;12.30;99.90
65404;DHT22;52014;52.088;5.096;2023-03-23T02:36:39;12.30;99.90
65404;DHT22;52014;52.088;5.096;2023-03-23T02:39:09;12.30;99.90
65404;DHT22;52014;52.088;5.096;2023-03-23T02:41:41;12.30;99.90
65404;DHT22;52014;52.088;5.096;2023-03-23T02:44:07;12.30;99.90
65404;DHT22;52014;52.088;5.096;2023-03-23T02:46:33;12.30;99.90
65404;DHT22;52014;52.088;5.096;2023-03-23T02:49:00;12.30;99.90
65404;DHT22;52014;52.088;5.096;2023-03-23T02:51:27;12.30;99.90
65404;DHT22;52014;52.088;5.096;2023-03-23T02:53:54;12.40;99.90
65404;DHT22;52014;52.088;5.096;2023-03-23T02:56:20;12.30;99.90
65404;DHT22;52014;52.088;5.096;2023-03-23T02:58:47;12.30;99.90
65404;DHT22;52014;52.088;5.096;2023-03-23T03:01:14;12.30;99.90
65404;DHT22;52014;52.088;5.096;2023-03-23T03:03:41;12.30;99.90
65404;DHT22;52014;52.088;5.096;2023-03-23T03:06:10;12.30;99.90
65404;DHT22;52014;52.088;5.096;2023-03-23T03:08:45;12.30;99.90
65404;DHT22;52014;52.088;5.096;2023-03-23T03:11:11;12.30;99.90
65404;DHT22;52014;52.088;5.096;2023-03-23T03:16:28;12.30;99.90
65404;DHT22;52014;52.088;5.096;2023-03-23T03:19:00;12.40;99.90
65404;DHT22;52014;52.088;5.096;2023-03-23T03:21:27;12.40;99.90
65404;DHT22;52014;52.088;5.096;2023-03-23T03:23:54;12.40;99.90
65404;DHT22;52014;52.088;5.096;2023-03-23T03:26:21;12.40;99.90
65404;DHT22;52014;52.088;5.096;2023-03-23T03:28:52;12.30;99.90
65404;DHT22;52014;52.088;5.096;2023-03-23T03:31:19;12.30;99.90
65404;DHT22;52014;52.088;5.096;2023-03-23T03:33:45;12.40;99.90
65404;DHT22;52014;52.088;5.096;2023-03-23T03:36:15;12.40;99.90
65404;DHT22;52014;52.088;5.096;2023-03-23T03:38:42;12.40;99.90
65404;DHT22;52014;52.088;5.096;2023-03-23T03:41:08;12.40;99.90
65404;DHT22;52014;52.088;5.096;2023-03-23T03:43:34;12.40;99.90
65404;DHT22;52014;52.088;5.096;2023-03-23T03:46:00;12.40;99.90
65404;DHT22;52014;52.088;5.096;2023-03-23T03:48:26;12.40;99.90
65404;DHT22;52014;52.088;5.096;2023-03-23T03:50:51;12.40;99.90
65404;DHT22;52014;52.088;5.096;2023-03-23T03:53:17;12.40;99.90
65404;DHT22;52014;52.088;5.096;2023-03-23T03:55:42;12.40;99.90
65404;DHT22;52014;52.088;5.096;2023-03-23T03:58:14;12.40;99.90
65404;DHT22;52014;52.088;5.096;2023-03-23T04:00:39;12.30;99.90
65404;DHT22;52014;52.088;5.096;2023-03-23T04:03:06;12.40;99.90
65404;DHT22;52014;52.088;5.096;2023-03-23T04:05:32;12.40;99.90
65404;DHT22;52014;52.088;5.096;2023-03-23T04:07:58;12.40;99.90
65404;DHT22;52014;52.088;5.096;2023-03-23T04:10:27;12.40;99.90
65404;DHT22;52014;52.088;5.096;2023-03-23T04:12:53;12.40;99.90
65404;DHT22;52014;52.088;5.096;2023-03-23T04:15:18;12.30;99.90
65404;DHT22;52014;52.088;5.096;2023-03-23T04:17:44;12.40;99.90
65404;DHT22;52014;52.088;5.096;2023-03-23T04:20:09;12.40;99.90
65404;DHT22;52014;52.088;5.096;2023-03-23T04:22:41;12.30;99.90
65404;DHT22;52014;52.088;5.096;2023-03-23T04:25:09;12.40;99.90
65404;DHT22;52014;52.088;5.096;2023-03-23T04:27:36;12.40;99.90
65404;DHT22;52014;52.088;5.096;2023-03-23T04:30:01;12.40;99.90
65404;DHT22;52014;52.088;5.096;2023-03-23T04:32:28;12.30;99.90
65404;DHT22;52014;52.088;5.096;2023-03-23T04:34:57;12.30;99.90
65404;DHT22;52014;52.088;5.096;2023-03-23T04:37:26;12.30;99.90
65404;DHT22;52014;52.088;5.096;2023-03-23T04:39:56;12.30;99.90
65404;DHT22;52014;52.088;5.096;2023-03-23T04:42:32;12.30;99.90
65404;DHT22;52014;52.088;5.096;2023-03-23T04:44:58;12.30;99.90
65404;DHT22;52014;52.088;5.096;2023-03-23T04:47:24;12.30;99.90
65404;DHT22;52014;52.088;5.096;2023-03-23T04:49:50;12.30;99.90
65404;DHT22;52014;52.088;5.096;2023-03-23T04:52:17;12.30;99.90
65404;DHT22;52014;52.088;5.096;2023-03-23T04:54:42;12.30;99.90
65404;DHT22;52014;52.088;5.096;2023-03-23T04:57:08;12.30;99.90
65404;DHT22;52014;52.088;5.096;2023-03-23T04:59:33;12.30;99.90
65404;DHT22;52014;52.088;5.096;2023-03-23T05:01:59;12.20;99.90
65404;DHT22;52014;52.088;5.096;2023-03-23T05:04:24;12.20;99.90
65404;DHT22;52014;52.088;5.096;2023-03-23T05:06:50;12.20;99.90
65404;DHT22;52014;52.088;5.096;2023-03-23T05:09:16;12.20;99.90
65404;DHT22;52014;52.088;5.096;2023-03-23T05:11:41;12.20;99.90
65404;DHT22;52014;52.088;5.096;2023-03-23T05:14:07;12.20;99.90
65404;DHT22;52014;52.088;5.096;2023-03-23T05:16:32;12.10;99.90
65404;DHT22;52014;52.088;5.096;2023-03-23T05:18:58;12.10;99.90
65404;DHT22;52014;52.088;5.096;2023-03-23T05:21:23;12.10;99.90
65404;DHT22;52014;52.088;5.096;2023-03-23T05:23:49;12.10;99.90
65404;DHT22;52014;52.088;5.096;2023-03-23T05:26:20;12.00;99.90
65404;DHT22;52014;52.088;5.096;2023-03-23T05:28:45;12.00;99.90
65404;DHT22;52014;52.088;5.096;2023-03-23T05:31:11;12.10;99.90
65404;DHT22;52014;52.088;5.096;2023-03-23T05:33:38;12.20;99.90
65404;DHT22;52014;52.088;5.096;2023-03-23T05:36:04;12.30;99.90
65404;DHT22;52014;52.088;5.096;2023-03-23T05:38:32;12.30;99.90
65404;DHT22;52014;52.088;5.096;2023-03-23T05:40:58;12.40;99.90
65404;DHT22;52014;52.088;5.096;2023-03-23T05:43:26;12.40;99.90
65404;DHT22;52014;52.088;5.096;2023-03-23T05:45:51;12.40;99.90
65404;DHT22;52014;52.088;5.096;2023-03-23T05:48:17;12.30;99.90
65404;DHT22;52014;52.088;5.096;2023-03-23T05:50:42;12.40;99.90
65404;DHT22;52014;52.088;5.096;2023-03-23T05:53:08;12.30;99.90
65404;DHT22;52014;52.088;5.096;2023-03-23T05:55:33;13.70;99.90
65404;DHT22;52014;52.088;5.096;2023-03-23T05:57:59;13.90;99.90
65404;DHT22;52014;52.088;5.096;2023-03-23T06:00:25;14.30;99.90
65404;DHT22;52014;52.088;5.096;2023-03-23T06:02:54;13.70;99.90
65404;DHT22;52014;52.088;5.096;2023-03-23T06:05:21;13.60;99.90
65404;DHT22;52014;52.088;5.096;2023-03-23T06:07:47;13.40;99.90
65404;DHT22;52014;52.088;5.096;2023-03-23T06:10:13;13.30;99.90
65404;DHT22;52014;52.088;5.096;2023-03-23T06:12:39;13.20;99.90
65404;DHT22;52014;52.088;5.096;2023-03-23T06:15:05;13.20;99.90
65404;DHT22;52014;52.088;5.096;2023-03-23T06:17:33;13.20;99.90
65404;DHT22;52014;52.088;5.096;2023-03-23T06:19:58;13.20;99.90
65404;DHT22;52014;52.088;5.096;2023-03-23T06:22:24;13.20;99.90
65404;DHT22;52014;52.088;5.096;2023-03-23T06:24:50;13.20;99.90
65404;DHT22;52014;52.088;5.096;2023-03-23T06:27:15;13.30;99.90
65404;DHT22;52014;52.088;5.096;2023-03-23T06:29:42;13.20;99.90
65404;DHT22;52014;52.088;5.096;2023-03-23T06:32:09;13.40;99.90
65404;DHT22;52014;52.088;5.096;2023-03-23T06:34:35;13.40;99.90
65404;DHT22;52014;52.088;5.096;2023-03-23T06:37:01;13.50;99.90
65404;DHT22;52014;52.088;5.096;2023-03-23T06:39:27;13.30;99.90
65404;DHT22;52014;52.088;5.096;2023-03-23T06:41:52;13.40;99.90
65404;DHT22;52014;52.088;5.096;2023-03-23T06:44:18;13.40;99.90
65404;DHT22;52014;52.088;5.096;2023-03-23T06:46:44;13.40;99.90
65404;DHT22;52014;52.088;5.096;2023-03-23T06:49:09;13.50;99.90
65404;DHT22;52014;52.088;5.096;2023-03-23T06:51:35;13.50;99.90
65404;DHT22;52014;52.088;5.096;2023-03-23T06:54:01;13.50;99.90
65404;DHT22;52014;52.088;5.096;2023-03-23T06:56:27;13.50;99.90
65404;DHT22;52014;52.088;5.096;2023-03-23T06:58:52;13.50;99.90
65404;DHT22;52014;52.088;5.096;2023-03-23T07:01:18;13.60;99.90
65404;DHT22;52014;52.088;5.096;2023-03-23T07:03:44;13.50;99.90
65404;DHT22;52014;52.088;5.096;2023-03-23T07:06:10;13.70;99.90
65404;DHT22;52014;52.088;5.096;2023-03-23T07:08:36;13.70;99.90
65404;DHT22;52014;52.088;5.096;2023-03-23T07:11:02;13.70;99.90
65404;DHT22;52014;52.088;5.096;2023-03-23T07:13:27;13.80;99.90
65404;DHT22;52014;52.088;5.096;2023-03-23T07:15:53;13.90;99.90
65404;DHT22;52014;52.088;5.096;2023-03-23T07:18:20;13.90;99.90
65404;DHT22;52014;52.088;5.096;2023-03-23T07:20:49;14.10;99.90
65404;DHT22;52014;52.088;5.096;2023-03-23T07:23:15;14.20;99.90
65404;DHT22;52014;52.088;5.096;2023-03-23T07:25:42;14.20;99.90
65404;DHT22;52014;52.088;5.096;2023-03-23T07:28:07;14.40;99.90
65404;DHT22;52014;52.088;5.096;2023-03-23T07:30:33;14.50;99.90
65404;DHT22;52014;52.088;5.096;2023-03-23T07:32:59;14.50;99.90
65404;DHT22;52014;52.088;5.096;2023-03-23T07:35:25;14.50;99.90
65404;DHT22;52014;52.088;5.096;2023-03-23T07:37:51;14.60;99.90
65404;DHT22;52014;52.088;5.096;2023-03-23T07:40:17;14.70;99.90
65404;DHT22;52014;52.088;5.096;2023-03-23T07:42:46;14.70;99.90
65404;DHT22;52014;52.088;5.096;2023-03-23T07:45:14;14.70;99.90
65404;DHT22;52014;52.088;5.096;2023-03-23T07:47:40;14.80;99.90
65404;DHT22;52014;52.088;5.096;2023-03-23T07:50:06;15.00;99.90
65404;DHT22;52014;52.088;5.096;2023-03-23T07:52:32;15.00;99.90
65404;DHT22;52014;52.088;5.096;2023-03-23T07:54:58;15.10;99.90
65404;DHT22;52014;52.088;5.096;2023-03-23T07:57:23;15.20;99.90
65404;DHT22;52014;52.088;5.096;2023-03-23T07:59:49;15.20;99.90
65404;DHT22;52014;52.088;5.096;2023-03-23T08:02:14;15.30;99.90
65404;DHT22;52014;52.088;5.096;2023-03-23T08:04:40;15.30;99.90
65404;DHT22;52014;52.088;5.096;2023-03-23T08:07:05;15.40;99.90
65404;DHT22;52014;52.088;5.096;2023-03-23T08:09:31;15.50;99.90
65404;DHT22;52014;52.088;5.096;2023-03-23T08:11:56;15.60;99.90
65404;DHT22;52014;52.088;5.096;2023-03-23T08:14:22;15.60;99.90
65404;DHT22;52014;52.088;5.096;2023-03-23T08:16:52;15.60;99.90
65404;DHT22;52014;52.088;5.096;2023-03-23T08:19:20;15.80;99.90
65404;DHT22;52014;52.088;5.096;2023-03-23T08:21:46;15.90;99.90
65404;DHT22;52014;52.088;5.096;2023-03-23T08:24:11;15.90;99.90
65404;DHT22;52014;52.088;5.096;2023-03-23T08:26:38;15.90;99.90
65404;DHT22;52014;52.088;5.096;2023-03-23T08:29:07;16.20;99.90
65404;DHT22;52014;52.088;5.096;2023-03-23T08:31:32;16.30;99.90
65404;DHT22;52014;52.088;5.096;2023-03-23T08:34:00;16.20;99.90
65404;DHT22;52014;52.088;5.096;2023-03-23T08:36:26;16.30;99.90
65404;DHT22;52014;52.088;5.096;2023-03-23T08:38:52;16.30;99.90
65404;DHT22;52014;52.088;5.096;2023-03-23T08:41:18;16.40;99.90
65404;DHT22;52014;52.088;5.096;2023-03-23T08:43:44;16.60;99.90
65404;DHT22;52014;52.088;5.096;2023-03-23T08:46:10;16.70;99.90
65404;DHT22;52014;52.088;5.096;2023-03-23T08:48:36;16.50;99.90
65404;DHT22;52014;52.088;5.096;2023-03-23T08:51:03;16.50;99.90
65404;DHT22;52014;52.088;5.096;2023-03-23T08:53:28;16.70;99.90
65404;DHT22;52014;52.088;5.096;2023-03-23T08:56:06;16.70;99.90
65404;DHT22;52014;52.088;5.096;2023-03-23T08:58:33;16.80;99.90
65404;DHT22;52014;52.088;5.096;2023-03-23T09:00:59;16.70;99.90
65404;DHT22;52014;52.088;5.096;2023-03-23T09:03:25;16.80;99.90
65404;DHT22;52014;52.088;5.096;2023-03-23T09:05:51;16.90;99.90
65404;DHT22;52014;52.088;5.096;2023-03-23T09:08:16;16.70;99.90
65404;DHT22;52014;52.088;5.096;2023-03-23T09:10:42;16.70;99.90
65404;DHT22;52014;52.088;5.096;2023-03-23T09:13:08;16.70;99.90
65404;DHT22;52014;52.088;5.096;2023-03-23T09:15:33;16.70;99.90
65404;DHT22;52014;52.088;5.096;2023-03-23T09:17:59;16.70;99.90
65404;DHT22;52014;52.088;5.096;2023-03-23T09:20:26;16.70;99.90
65404;DHT22;52014;52.088;5.096;2023-03-23T09:22:53;16.90;99.90
65404;DHT22;52014;52.088;5.096;2023-03-23T09:25:20;17.10;99.90
65404;DHT22;52014;52.088;5.096;2023-03-23T09:27:50;17.10;99.90
65404;DHT22;52014;52.088;5.096;2023-03-23T09:30:19;17.00;99.90
65404;DHT22;52014;52.088;5.096;2023-03-23T09:32:44;17.20;99.90
65404;DHT22;52014;52.088;5.096;2023-03-23T09:35:10;17.50;99.90
65404;DHT22;52014;52.088;5.096;2023-03-23T09:37:38;17.60;99.90
65404;DHT22;52014;52.088;5.096;2023-03-23T09:40:05;17.60;99.90
65404;DHT22;52014;52.088;5.096;2023-03-23T09:48:10;17.70;99.90
65404;DHT22;52014;52.088;5.096;2023-03-23T09:50:42;17.70;99.90
65404;DHT22;52014;52.088;5.096;2023-03-23T09:53:22;17.80;99.90
65404;DHT22;52014;52.088;5.096;2023-03-23T09:55:50;18.10;99.90
65404;DHT22;52014;52.088;5.096;2023-03-23T09:58:39;18.30;99.90
65404;DHT22;52014;52.088;5.096;2023-03-23T10:01:04;18.20;99.90
65404;DHT22;52014;52.088;5.096;2023-03-23T10:03:33;18.10;99.90
65404;DHT22;52014;52.088;5.096;2023-03-23T10:06:01;18.20;99.90
65404;DHT22;52014;52.088;5.096;2023-03-23T10:08:29;18.00;99.90
65404;DHT22;52014;52.088;5.096;2023-03-23T10:11:00;17.60;99.90
65404;DHT22;52014;52.088;5.096;2023-03-23T10:16:02;17.50;99.90
65404;DHT22;52014;52.088;5.096;2023-03-23T10:18:35;17.20;99.90
65404;DHT22;52014;52.088;5.096;2023-03-23T10:21:02;17.20;99.90
65404;DHT22;52014;52.088;5.096;2023-03-23T10:28:59;17.40;99.90
65404;DHT22;52014;52.088;5.096;2023-03-23T10:31:31;17.00;99.90
65404;DHT22;52014;52.088;5.096;2023-03-23T10:33:59;16.40;99.90
65404;DHT22;52014;52.088;5.096;2023-03-23T10:36:34;16.10;99.90
65404;DHT22;52014;52.088;5.096;2023-03-23T10:39:03;15.60;99.90
65404;DHT22;52014;52.088;5.096;2023-03-23T10:41:31;15.40;99.90
65404;DHT22;52014;52.088;5.096;2023-03-23T10:44:20;15.40;99.90
65404;DHT22;52014;52.088;5.096;2023-03-23T10:49:23;14.50;99.90
65404;DHT22;52014;52.088;5.096;2023-03-23T10:51:56;14.60;99.90
65404;DHT22;52014;52.088;5.096;2023-03-23T10:54:27;14.60;99.90
65404;DHT22;52014;52.088;5.096;2023-03-23T10:56:53;14.70;99.90
65404;DHT22;52014;52.088;5.096;2023-03-23T10:59:27;14.90;99.90
65404;DHT22;52014;52.088;5.096;2023-03-23T11:01:55;14.80;99.90
65404;DHT22;52014;52.088;5.096;2023-03-23T11:04:22;14.80;99.90
65404;DHT22;52014;52.088;5.096;2023-03-23T11:06:49;14.90;99.90
65404;DHT22;52014;52.088;5.096;2023-03-23T11:09:17;14.70;99.90
65404;DHT22;52014;52.088;5.096;2023-03-23T11:11:52;14.50;99.90
65404;DHT22;52014;52.088;5.096;2023-03-23T11:14:24;14.10;99.90
65404;DHT22;52014;52.088;5.096;2023-03-23T11:16:51;14.30;99.90
65404;DHT22;52014;52.088;5.096;2023-03-23T11:19:36;14.40;99.90
65404;DHT22;52014;52.088;5.096;2023-03-23T11:24:31;14.30;99.90
65404;DHT22;52014;52.088;5.096;2023-03-23T11:26:57;14.50;99.90
65404;DHT22;52014;52.088;5.096;2023-03-23T11:29:27;14.70;99.90
65404;DHT22;52014;52.088;5.096;2023-03-23T11:34:25;14.60;99.90
65404;DHT22;52014;52.088;5.096;2023-03-23T11:36:57;14.40;99.90
65404;DHT22;52014;52.088;5.096;2023-03-23T11:39:28;14.20;99.90
65404;DHT22;52014;52.088;5.096;2023-03-23T11:41:54;14.30;99.90
65404;DHT22;52014;52.088;5.096;2023-03-23T11:44:22;14.30;99.90
65404;DHT22;52014;52.088;5.096;2023-03-23T11:49:23;14.10;99.90
65404;DHT22;52014;52.088;5.096;2023-03-23T11:51:55;14.00;99.90
65404;DHT22;52014;52.088;5.096;2023-03-23T11:54:28;14.00;99.90
65404;DHT22;52014;52.088;5.096;2023-03-23T11:56:55;14.00;99.90
65404;DHT22;52014;52.088;5.096;2023-03-23T11:59:29;13.90;99.90
65404;DHT22;52014;52.088;5.096;2023-03-23T12:04:33;13.90;99.90
65404;DHT22;52014;52.088;5.096;2023-03-23T12:12:42;14.20;99.90
65404;DHT22;52014;52.088;5.096;2023-03-23T12:15:25;14.30;99.90
65404;DHT22;52014;52.088;5.096;2023-03-23T12:18:15;14.50;99.90
65404;DHT22;52014;52.088;5.096;2023-03-23T12:23:25;14.40;99.90
65404;DHT22;52014;52.088;5.096;2023-03-23T12:25:57;14.30;99.90
65404;DHT22;52014;52.088;5.096;2023-03-23T12:29:25;14.30;99.90
65404;DHT22;52014;52.088;5.096;2023-03-23T12:31:33;14.30;99.90
65404;DHT22;52014;52.088;5.096;2023-03-23T12:39:14;14.10;99.90
65404;DHT22;52014;52.088;5.096;2023-03-23T12:41:44;14.10;99.90
65404;DHT22;52014;52.088;5.096;2023-03-23T12:44:12;14.30;99.90
65404;DHT22;52014;52.088;5.096;2023-03-23T12:49:21;14.20;99.90
65404;DHT22;52014;52.088;5.096;2023-03-23T12:54:42;14.40;99.90
65404;DHT22;52014;52.088;5.096;2023-03-23T12:57:19;14.50;99.90
65404;DHT22;52014;52.088;5.096;2023-03-23T13:00:29;14.50;99.90
65404;DHT22;52014;52.088;5.096;2023-03-23T13:02:41;14.50;99.90
65404;DHT22;52014;52.088;5.096;2023-03-23T13:05:25;14.40;99.90
65404;DHT22;52014;52.088;5.096;2023-03-23T13:07:53;14.50;99.90
65404;DHT22;52014;52.088;5.096;2023-03-23T13:10:21;14.60;99.90
65404;DHT22;52014;52.088;5.096;2023-03-23T13:12:48;14.70;99.90
65404;DHT22;52014;52.088;5.096;2023-03-23T13:15:20;14.70;99.90
65404;DHT22;52014;52.088;5.096;2023-03-23T13:17:53;14.90;99.90
65404;DHT22;52014;52.088;5.096;2023-03-23T13:20:29;14.90;99.90
65404;DHT22;52014;52.088;5.096;2023-03-23T13:23:02;15.00;99.90
65404;DHT22;52014;52.088;5.096;2023-03-23T13:25:40;14.80;99.90
65404;DHT22;52014;52.088;5.096;2023-03-23T13:28:22;14.80;99.90
65404;DHT22;52014;52.088;5.096;2023-03-23T13:30:54;14.80;99.90
65404;DHT22;52014;52.088;5.096;2023-03-23T13:33:20;15.00;99.90
65404;DHT22;52014;52.088;5.096;2023-03-23T13:35:46;14.90;99.90
65404;DHT22;52014;52.088;5.096;2023-03-23T13:38:34;14.80;99.90
65404;DHT22;52014;52.088;5.096;2023-03-23T13:41:05;14.90;99.90
65404;DHT22;52014;52.088;5.096;2023-03-23T13:43:32;15.00;99.90
65404;DHT22;52014;52.088;5.096;2023-03-23T13:51:46;14.80;99.90
65404;DHT22;52014;52.088;5.096;2023-03-23T13:54:24;14.80;99.90
65404;DHT22;52014;52.088;5.096;2023-03-23T14:01:51;14.60;99.90
65404;DHT22;52014;52.088;5.096;2023-03-23T14:04:17;14.40;99.90
65404;DHT22;52014;52.088;5.096;2023-03-23T14:06:46;14.20;99.90
65404;DHT22;52014;52.088;5.096;2023-03-23T14:14:30;14.40;99.90
65404;DHT22;52014;52.088;5.096;2023-03-23T14:19:40;14.50;99.90
65404;DHT22;52014;52.088;5.096;2023-03-23T14:22:17;14.70;99.90
65404;DHT22;52014;52.088;5.096;2023-03-23T14:24:42;14.70;99.90
65404;DHT22;52014;52.088;5.096;2023-03-23T14:27:09;14.80;99.90
65404;DHT22;52014;52.088;5.096;2023-03-23T14:29:35;14.80;99.90
65404;DHT22;52014;52.088;5.096;2023-03-23T14:32:01;14.90;99.90
65404;DHT22;52014;52.088;5.096;2023-03-23T14:34:28;14.90;99.90
65404;DHT22;52014;52.088;5.096;2023-03-23T14:36:55;14.90;99.90
65404;DHT22;52014;52.088;5.096;2023-03-23T14:41:47;15.20;99.90
65404;DHT22;52014;52.088;5.096;2023-03-23T14:44:14;15.30;99.90
65404;DHT22;52014;52.088;5.096;2023-03-23T14:46:41;15.20;99.90
65404;DHT22;52014;52.088;5.096;2023-03-23T14:49:07;15.10;99.90
65404;DHT22;52014;52.088;5.096;2023-03-23T14:51:33;15.10;99.90
65404;DHT22;52014;52.088;5.096;2023-03-23T14:53:59;15.00;99.90
65404;DHT22;52014;52.088;5.096;2023-03-23T14:56:30;15.00;99.90
65404;DHT22;52014;52.088;5.096;2023-03-23T14:59:00;15.00;99.90
65404;DHT22;52014;52.088;5.096;2023-03-23T15:01:27;14.90;99.90
65404;DHT22;52014;52.088;5.096;2023-03-23T15:04:04;14.90;99.90
65404;DHT22;52014;52.088;5.096;2023-03-23T15:06:32;14.90;99.90
65404;DHT22;52014;52.088;5.096;2023-03-23T15:09:01;14.80;99.90
65404;DHT22;52014;52.088;5.096;2023-03-23T15:11:30;14.80;99.90
65404;DHT22;52014;52.088;5.096;2023-03-23T15:13:57;14.80;99.90
65404;DHT22;52014;52.088;5.096;2023-03-23T15:16:25;14.80;99.90
65404;DHT22;52014;52.088;5.096;2023-03-23T15:18:55;14.80;99.90
65404;DHT22;52014;52.088;5.096;2023-03-23T15:21:31;14.80;99.90
65404;DHT22;52014;52.088;5.096;2023-03-23T15:23:59;14.70;99.90
65404;DHT22;52014;52.088;5.096;2023-03-23T15:26:26;14.70;99.90
65404;DHT22;52014;52.088;5.096;2023-03-23T15:29:10;14.60;99.90
65404;DHT22;52014;52.088;5.096;2023-03-23T15:31:39;14.70;99.90
65404;DHT22;52014;52.088;5.096;2023-03-23T15:34:05;14.70;99.90
65404;DHT22;52014;52.088;5.096;2023-03-23T15:36:34;14.70;99.90
65404;DHT22;52014;52.088;5.096;2023-03-23T15:39:00;14.70;99.90
65404;DHT22;52014;52.088;5.096;2023-03-23T15:41:27;14.70;99.90
65404;DHT22;52014;52.088;5.096;2023-03-23T15:43:56;14.80;99.90
65404;DHT22;52014;52.088;5.096;2023-03-23T15:46:27;14.80;99.90
65404;DHT22;52014;52.088;5.096;2023-03-23T15:51:22;14.70;99.90
65404;DHT22;52014;52.088;5.096;2023-03-23T15:53:49;14.80;99.90
65404;DHT22;52014;52.088;5.096;2023-03-23T15:56:15;14.80;99.90
65404;DHT22;52014;52.088;5.096;2023-03-23T15:58:41;14.80;99.90
65404;DHT22;52014;52.088;5.096;2023-03-23T16:01:17;14.90;99.90
65404;DHT22;52014;52.088;5.096;2023-03-23T16:03:47;14.90;99.90
65404;DHT22;52014;52.088;5.096;2023-03-23T16:06:14;15.00;99.90
65404;DHT22;52014;52.088;5.096;2023-03-23T16:08:40;15.00;99.90
65404;DHT22;52014;52.088;5.096;2023-03-23T16:11:06;15.00;99.90
65404;DHT22;52014;52.088;5.096;2023-03-23T16:13:33;15.00;99.90
65404;DHT22;52014;52.088;5.096;2023-03-23T16:15:59;14.90;99.90
65404;DHT22;52014;52.088;5.096;2023-03-23T16:18:24;14.90;99.90
65404;DHT22;52014;52.088;5.096;2023-03-23T16:20:50;14.80;99.90
65404;DHT22;52014;52.088;5.096;2023-03-23T16:23:15;14.80;99.90
65404;DHT22;52014;52.088;5.096;2023-03-23T16:25:41;14.80;99.90
65404;DHT22;52014;52.088;5.096;2023-03-23T16:28:08;14.80;99.90
65404;DHT22;52014;52.088;5.096;2023-03-23T16:30:35;14.80;99.90
65404;DHT22;52014;52.088;5.096;2023-03-23T16:33:01;14.80;99.90
65404;DHT22;52014;52.088;5.096;2023-03-23T16:35:26;14.80;99.90
65404;DHT22;52014;52.088;5.096;2023-03-23T16:37:53;14.70;99.90
65404;DHT22;52014;52.088;5.096;2023-03-23T16:40:19;14.70;99.90
65404;DHT22;52014;52.088;5.096;2023-03-23T16:42:45;14.70;99.90
65404;DHT22;52014;52.088;5.096;2023-03-23T16:45:11;14.70;99.90
65404;DHT22;52014;52.088;5.096;2023-03-23T16:47:37;14.70;99.90
65404;DHT22;52014;52.088;5.096;2023-03-23T16:50:04;14.70;99.90
65404;DHT22;52014;52.088;5.096;2023-03-23T16:52:31;14.70;99.90
65404;DHT22;52014;52.088;5.096;2023-03-23T16:54:56;14.70;99.90
65404;DHT22;52014;52.088;5.096;2023-03-23T16:57:22;14.70;99.90
65404;DHT22;52014;52.088;5.096;2023-03-23T16:59:47;14.70;99.90
65404;DHT22;52014;52.088;5.096;2023-03-23T17:02:13;14.70;99.90